Airfield :
LOGIN :

Register | Disclaimer

   EN    FR    IT 

 










Legend :    VFR   Marginal VFR   IFR   Intensive IFR   Very Intensive IFR
Visi :
Ceiling :
>= 8 km
>= 3000ft
5 to 8 km
1000 to 3000 ft
1500m to 5 km
500 to 1000 ft
800 to 1500m
200 to 500 ft
< 800m
< 200 ft
Symbols :   Thunderstorms  Fog  Heavy snow  Heavy precipitations  Wind > 20 kt
SIGMETs :     Misc.  Thunderstorms  Icing  Turbulence  Mountain Waves  Volcanic Ashes






- Airport Elevation : 390 ft
- IATA code : NQY


EGHQ - Newquay

CURRENT METAR :
  • 270750Z 36027G40KT 9999 5000W VCSH BKN035 06/00 Q1003 RERA

EXPIRED METARs :
  • 270720Z 36027G47KT 6000 SHRA BKN015 05/02 Q1003
  • 270650Z AUTO 36027G40KT 9999 BKN037/// 07/M01 Q1002 RERA
  • 270620Z AUTO 35028G44KT 330V030 9999 BKN027/// 06/01 Q1001 RERA
  • 270550Z AUTO 36028G46KT 9999 BKN026/// 06/01 Q1001 RERA
  • 270520Z AUTO 35029G44KT 9999 FEW024/// BKN032/// 06/02 Q1000 RERA

TAF TAF EGHQ
Valid from the 27 at 06:00 until the 27 at 15:00 UTC


270506Z 2706/2715 35020G35KT 9999 SCT020
TEMPO 2706/2715 34030G40KT 6000 SHRA BKN014
PROB30
TEMPO 2706/2713 34035G50KT 3000 +SHRA



MET'MAP, your aeronautical weather chart ! - Copyright ORBIFLY December 2007 - Disclaimer

ORBIFLY MET'MAP TEAM :

Programming & Development : Alexandra Zaïnal
Concept & original design : Baudouin d'Aumeries
Assistance for programming : Marc-Olivier Méhu
Technical & hardware support : Manuel Goepfert

Contact : metmap@orbifly.com




SOURCES & CREDITS :

   NOAA